^^
Station Historical Data
Daily Summary for October 21, 2017 Units:  Both    English   Metric
« Previous Day
Next Day »
Daily Weekly Monthly Yearly Custom
  High: Low: Average:
Temperature: TemperatureF °F /  -17.8 °C 54.5 °F /  12.5 °C 73.3 °F /  22.9 °C
Dew Point: DewpointF °F /  -17.8 °C 15.4 °F /  -9.2 °C 24.2 °F /  -4.3 °C
Humidity: Humidity% 8% 17%
Wind Speed: WindSpeedMPHmph /  0km/h - 2.2mph /  3.5km/h
Wind Gust: WindSpeedGustMPHmph /  0km/h - -
Wind- - SSE
Pressure: PressureIn in /  0 hPa 29.77 in /  1008 hPa -
Precipitation: 0.00 in /  0 mm    
Historical Graphs
 
 
Tabular Data for October 21, 2017
Time Temperature Dew Point Pressure Wind Wind Speed Wind Gust Humidity Rainfall Rate (Hourly) solar Conditions
TemperatureF °F /  -17.8 °C DewpointF °F /  -17.8 °C PressureInin /  0hPa Calm     Humidity% HourlyPrecipInin /  0mm SolarRadiationWatts/m^2 W/m2 Conditions
00:02 61.3 °F /  16.3 °C 16.2 °F /  -8.8 °C 29.91in /  1012.8hPa Calm   2.0mph /  3.2km/h 17% 0.00in /  0mm 0.0 W/m2
00:08 61.2 °F /  16.2 °C 17.2 °F /  -8.2 °C 29.91in /  1012.8hPa Calm   2.0mph /  3.2km/h 18% 0.00in /  0mm 0.0 W/m2
00:14 61.2 °F /  16.2 °C 17.2 °F /  -8.2 °C 29.91in /  1012.8hPa Calm     18% 0.00in /  0mm 0.0 W/m2
00:19 61.0 °F /  16.1 °C 17.2 °F /  -8.2 °C 29.91in /  1012.8hPa Calm     18% 0.00in /  0mm 0.0 W/m2
00:24 60.6 °F /  15.9 °C 16.9 °F /  -8.4 °C 29.91in /  1012.8hPa Calm   1.0mph /  1.6km/h 18% 0.00in /  0mm 0.0 W/m2
00:29 60.4 °F /  15.8 °C 16.7 °F /  -8.5 °C 29.91in /  1012.8hPa Calm     18% 0.00in /  0mm 0.0 W/m2
00:34 60.3 °F /  15.7 °C 16.5 °F /  -8.6 °C 29.91in /  1012.8hPa Calm     18% 0.00in /  0mm 0.0 W/m2
00:39 60.1 °F /  15.6 °C 16.3 °F /  -8.7 °C 29.91in /  1012.8hPa Calm     18% 0.00in /  0mm 0.0 W/m2
00:44 59.7 °F /  15.4 °C 16.2 °F /  -8.8 °C 29.90in /  1012.4hPa Calm     18% 0.00in /  0mm 0.0 W/m2
00:49 59.4 °F /  15.2 °C 17.1 °F /  -8.3 °C 29.90in /  1012.4hPa Calm     19% 0.00in /  0mm 0.0 W/m2
00:55 59.2 °F /  15.1 °C 16.9 °F /  -8.4 °C 29.90in /  1012.4hPa Calm     19% 0.00in /  0mm 0.0 W/m2
01:00 59.0 °F /  15 °C 16.7 °F /  -8.5 °C 29.90in /  1012.4hPa Calm   2.0mph /  3.2km/h 19% 0.00in /  0mm 0.0 W/m2
01:05 58.6 °F /  14.8 °C 16.5 °F /  -8.6 °C 29.90in /  1012.4hPa Calm     19% 0.00in /  0mm 0.0 W/m2
01:10 58.5 °F /  14.7 °C 16.3 °F /  -8.7 °C 29.90in /  1012.4hPa Calm     19% 0.00in /  0mm 0.0 W/m2
01:15 58.3 °F /  14.6 °C 16.2 °F /  -8.8 °C 29.90in /  1012.4hPa Calm     19% 0.00in /  0mm 0.0 W/m2
01:20 57.9 °F /  14.4 °C 15.8 °F /  -9 °C 29.90in /  1012.4hPa Calm     19% 0.00in /  0mm 0.0 W/m2
01:25 57.7 °F /  14.3 °C 15.8 °F /  -9 °C 29.90in /  1012.4hPa Calm     19% 0.00in /  0mm 0.0 W/m2
01:30 57.6 °F /  14.2 °C 15.6 °F /  -9.1 °C 29.89in /  1012.1hPa Calm     19% 0.00in /  0mm 0.0 W/m2
01:35 57.6 °F /  14.2 °C 15.6 °F /  -9.1 °C 29.89in /  1012.1hPa Calm     19% 0.00in /  0mm 0.0 W/m2
01:40 57.6 °F /  14.2 °C 15.6 °F /  -9.1 °C 29.89in /  1012.1hPa Calm     19% 0.00in /  0mm 0.0 W/m2
01:46 57.6 °F /  14.2 °C 15.6 °F /  -9.1 °C 29.89in /  1012.1hPa Calm     19% 0.00in /  0mm 0.0 W/m2
01:51 57.6 °F /  14.2 °C 15.6 °F /  -9.1 °C 29.89in /  1012.1hPa Calm     19% 0.00in /  0mm 0.0 W/m2
01:56 57.6 °F /  14.2 °C 16.7 °F /  -8.5 °C 29.88in /  1011.7hPa Calm     20% 0.00in /  0mm 0.0 W/m2
02:01 57.6 °F /  14.2 °C 15.6 °F /  -9.1 °C 29.88in /  1011.7hPa Calm     19% 0.00in /  0mm 0.0 W/m2
02:06 57.4 °F /  14.1 °C 15.4 °F /  -9.2 °C 29.88in /  1011.7hPa Calm     19% 0.00in /  0mm 0.0 W/m2
02:11 57.4 °F /  14.1 °C 15.4 °F /  -9.2 °C 29.88in /  1011.7hPa Calm   1.0mph /  1.6km/h 19% 0.00in /  0mm 0.0 W/m2
02:16 57.4 °F /  14.1 °C 15.4 °F /  -9.2 °C 29.88in /  1011.7hPa NE 2.0mph /  3.2km/h 2.0mph /  3.2km/h 19% 0.00in /  0mm 0.0 W/m2
02:21 57.4 °F /  14.1 °C 15.4 °F /  -9.2 °C 29.88in /  1011.7hPa Calm   2.0mph /  3.2km/h 19% 0.00in /  0mm 0.0 W/m2
02:26 57.6 °F /  14.2 °C 15.6 °F /  -9.1 °C 29.88in /  1011.7hPa Calm   3.0mph /  4.8km/h 19% 0.00in /  0mm 0.0 W/m2
02:31 57.7 °F /  14.3 °C 15.8 °F /  -9 °C 29.88in /  1011.7hPa Calm   1.0mph /  1.6km/h 19% 0.00in /  0mm 0.0 W/m2
02:36 57.9 °F /  14.4 °C 15.8 °F /  -9 °C 29.88in /  1011.7hPa Calm     19% 0.00in /  0mm 0.0 W/m2
02:42 57.9 °F /  14.4 °C 17.1 °F /  -8.3 °C 29.88in /  1011.7hPa Calm     20% 0.00in /  0mm 0.0 W/m2
02:47 57.7 °F /  14.3 °C 18.1 °F /  -7.7 °C 29.88in /  1011.7hPa Calm     21% 0.00in /  0mm 0.0 W/m2
02:52 57.6 °F /  14.2 °C 18.0 °F /  -7.8 °C 29.87in /  1011.4hPa Calm     21% 0.00in /  0mm 0.0 W/m2
02:58 57.4 °F /  14.1 °C 17.8 °F /  -7.9 °C 29.87in /  1011.4hPa Calm     21% 0.00in /  0mm 0.0 W/m2
03:03 57.2 °F /  14 °C 17.6 °F /  -8 °C 29.87in /  1011.4hPa Calm     21% 0.00in /  0mm 0.0 W/m2
03:08 57.0 °F /  13.9 °C 18.5 °F /  -7.5 °C 29.87in /  1011.4hPa Calm     22% 0.00in /  0mm 0.0 W/m2
03:13 56.8 °F /  13.8 °C 17.2 °F /  -8.2 °C 29.87in /  1011.4hPa Calm     21% 0.00in /  0mm 0.0 W/m2
03:18 56.8 °F /  13.8 °C 18.3 °F /  -7.6 °C 29.87in /  1011.4hPa Calm     22% 0.00in /  0mm 0.0 W/m2
03:23 56.8 °F /  13.8 °C 18.3 °F /  -7.6 °C 29.87in /  1011.4hPa Calm     22% 0.00in /  0mm 0.0 W/m2
03:28 56.7 °F /  13.7 °C 18.3 °F /  -7.6 °C 29.87in /  1011.4hPa Calm     22% 0.00in /  0mm 0.0 W/m2
03:34 56.7 °F /  13.7 °C 18.3 °F /  -7.6 °C 29.87in /  1011.4hPa Calm     22% 0.00in /  0mm 0.0 W/m2
03:39 56.5 °F /  13.6 °C 20.1 °F /  -6.6 °C 29.87in /  1011.4hPa Calm     24% 0.00in /  0mm 0.0 W/m2
03:44 56.5 °F /  13.6 °C 20.1 °F /  -6.6 °C 29.87in /  1011.4hPa Calm     24% 0.00in /  0mm 0.0 W/m2
03:49 56.1 °F /  13.4 °C 20.8 °F /  -6.2 °C 29.87in /  1011.4hPa Calm     25% 0.00in /  0mm 0.0 W/m2
03:54 55.9 °F /  13.3 °C 20.7 °F /  -6.3 °C 29.87in /  1011.4hPa Calm     25% 0.00in /  0mm 0.0 W/m2
03:59 55.8 °F /  13.2 °C 20.5 °F /  -6.4 °C 29.87in /  1011.4hPa Calm     25% 0.00in /  0mm 0.0 W/m2
04:04 55.6 °F /  13.1 °C 20.3 °F /  -6.5 °C 29.88in /  1011.7hPa Calm     25% 0.00in /  0mm 0.0 W/m2
04:09 55.2 °F /  12.9 °C 20.8 °F /  -6.2 °C 29.88in /  1011.7hPa Calm     26% 0.00in /  0mm 0.0 W/m2
04:14 55.0 °F /  12.8 °C 20.8 °F /  -6.2 °C 29.88in /  1011.7hPa Calm     26% 0.00in /  0mm 0.0 W/m2
04:20 54.9 °F /  12.7 °C 20.7 °F /  -6.3 °C 29.88in /  1011.7hPa Calm     26% 0.00in /  0mm 0.0 W/m2
04:25 54.9 °F /  12.7 °C 21.6 °F /  -5.8 °C 29.88in /  1011.7hPa Calm     27% 0.00in /  0mm 0.0 W/m2
04:30 54.7 °F /  12.6 °C 21.4 °F /  -5.9 °C 29.88in /  1011.7hPa Calm   1.0mph /  1.6km/h 27% 0.00in /  0mm 0.0 W/m2
04:35 54.5 °F /  12.5 °C 22.1 °F /  -5.5 °C 29.88in /  1011.7hPa Calm     28% 0.00in /  0mm 0.0 W/m2
04:36 54.5 °F /  12.5 °C 22.1 °F /  -5.5 °C 29.88in /  1011.7hPa Calm   2.0mph /  3.2km/h 28% 0.00in /  0mm 0.0 W/m2
04:41 54.9 °F /  12.7 °C 23.2 °F /  -4.9 °C 29.88in /  1011.7hPa Calm   3.0mph /  4.8km/h 29% 0.00in /  0mm 0.0 W/m2
04:46 55.9 °F /  13.3 °C 23.4 °F /  -4.8 °C 29.89in /  1012.1hPa SSE 0.9mph /  1.4km/h 3.0mph /  4.8km/h 28% 0.00in /  0mm 0.0 W/m2
04:51 57.0 °F /  13.9 °C 23.4 °F /  -4.8 °C 29.89in /  1012.1hPa Calm   3.0mph /  4.8km/h 27% 0.00in /  0mm 0.0 W/m2
04:56 57.9 °F /  14.4 °C 24.1 °F /  -4.4 °C 29.89in /  1012.1hPa SE 2.0mph /  3.2km/h 5.0mph /  8km/h 27% 0.00in /  0mm 0.0 W/m2
05:02 58.5 °F /  14.7 °C 23.7 °F /  -4.6 °C 29.89in /  1012.1hPa Calm   1.0mph /  1.6km/h 26% 0.00in /  0mm 0.0 W/m2
05:07 58.6 °F /  14.8 °C 23.9 °F /  -4.5 °C 29.89in /  1012.1hPa Calm   2.0mph /  3.2km/h 26% 0.00in /  0mm 0.0 W/m2
05:21 58.6 °F /  14.8 °C 23.9 °F /  -4.5 °C 29.89in /  1012.1hPa Calm   1.0mph /  1.6km/h 26% 0.00in /  0mm 0.0 W/m2
05:25 58.5 °F /  14.7 °C 23.7 °F /  -4.6 °C 29.89in /  1012.1hPa Calm   3.0mph /  4.8km/h 26% 0.00in /  0mm 0.0 W/m2
05:29 58.6 °F /  14.8 °C 23.9 °F /  -4.5 °C 29.89in /  1012.1hPa ESE 2.9mph /  4.7km/h 8.0mph /  12.9km/h 26% 0.00in /  0mm 0.0 W/m2
05:34 59.4 °F /  15.2 °C 24.4 °F /  -4.2 °C 29.89in /  1012.1hPa Calm   6.0mph /  9.7km/h 26% 0.00in /  0mm 0.0 W/m2
05:43 60.4 °F /  15.8 °C 25.3 °F /  -3.7 °C 29.89in /  1012.1hPa SE 4.0mph /  6.4km/h 4.0mph /  6.4km/h 26% 0.00in /  0mm 0.0 W/m2
05:46 60.6 °F /  15.9 °C 24.6 °F /  -4.1 °C 29.89in /  1012.1hPa Calm   1.0mph /  1.6km/h 25% 0.00in /  0mm 0.0 W/m2
05:51 60.8 °F /  16 °C 24.8 °F /  -4 °C 29.89in /  1012.1hPa Calm   4.0mph /  6.4km/h 25% 0.00in /  0mm 0.0 W/m2
05:56 61.0 °F /  16.1 °C 25.0 °F /  -3.9 °C 29.89in /  1012.1hPa Calm   5.0mph /  8km/h 25% 0.00in /  0mm 0.0 W/m2
06:01 60.8 °F /  16 °C 25.7 °F /  -3.5 °C 29.90in /  1012.4hPa Calm   5.0mph /  8km/h 26% 0.00in /  0mm 0.0 W/m2
06:06 60.8 °F /  16 °C 25.7 °F /  -3.5 °C 29.90in /  1012.4hPa Calm   2.0mph /  3.2km/h 26% 0.00in /  0mm 0.0 W/m2
06:11 60.6 °F /  15.9 °C 25.5 °F /  -3.6 °C 29.90in /  1012.4hPa East 2.0mph /  3.2km/h 9.0mph /  14.5km/h 26% 0.00in /  0mm 0.0 W/m2
06:16 60.8 °F /  16 °C 25.7 °F /  -3.5 °C 29.90in /  1012.4hPa East 2.9mph /  4.7km/h 5.0mph /  8km/h 26% 0.00in /  0mm 0.0 W/m2
06:21 61.0 °F /  16.1 °C 25.9 °F /  -3.4 °C 29.91in /  1012.8hPa ESE 10.1mph /  16.3km/h 10.1mph /  16.3km/h 26% 0.00in /  0mm 5.0 W/m2
06:27 61.0 °F /  16.1 °C 25.9 °F /  -3.4 °C 29.90in /  1012.4hPa SE 2.9mph /  4.7km/h 8.0mph /  12.9km/h 26% 0.00in /  0mm 7.0 W/m2
06:31 61.0 °F /  16.1 °C 26.8 °F /  -2.9 °C 29.91in /  1012.8hPa ESE 6.0mph /  9.7km/h 10.0mph /  16.1km/h 27% 0.00in /  0mm 9.0 W/m2
06:37 60.8 °F /  16 °C 26.6 °F /  -3 °C 29.91in /  1012.8hPa East 4.9mph /  7.9km/h 15.0mph /  24.1km/h 27% 0.00in /  0mm 11.0 W/m2
06:42 60.8 °F /  16 °C 26.6 °F /  -3 °C 29.91in /  1012.8hPa SE 2.0mph /  3.2km/h 11.0mph /  17.7km/h 27% 0.00in /  0mm 12.0 W/m2
06:47 60.8 °F /  16 °C 26.6 °F /  -3 °C 29.92in /  1013.1hPa SE 2.9mph /  4.7km/h 9.0mph /  14.5km/h 27% 0.00in /  0mm 14.0 W/m2
06:52 60.6 °F /  15.9 °C 26.4 °F /  -3.1 °C 29.92in /  1013.1hPa SE 8.9mph /  14.3km/h 9.0mph /  14.5km/h 27% 0.00in /  0mm 16.0 W/m2
06:57 60.6 °F /  15.9 °C 26.4 °F /  -3.1 °C 29.92in /  1013.1hPa SE 8.1mph /  13km/h 18.0mph /  29km/h 27% 0.00in /  0mm 16.0 W/m2
07:02 61.0 °F /  16.1 °C 26.8 °F /  -2.9 °C 29.92in /  1013.1hPa ESE 10.1mph /  16.3km/h 11.0mph /  17.7km/h 27% 0.00in /  0mm 18.0 W/m2
07:07 61.0 °F /  16.1 °C 26.8 °F /  -2.9 °C 29.92in /  1013.1hPa ESE 4.9mph /  7.9km/h 12.0mph /  19.3km/h 27% 0.00in /  0mm 19.0 W/m2
07:13 61.0 °F /  16.1 °C 26.8 °F /  -2.9 °C 29.92in /  1013.1hPa SE 4.0mph /  6.4km/h 8.0mph /  12.9km/h 27% 0.00in /  0mm 19.0 W/m2
07:18 61.2 °F /  16.2 °C 27.0 °F /  -2.8 °C 29.91in /  1012.8hPa Calm   5.0mph /  8km/h 27% 0.00in /  0mm 21.0 W/m2
07:23 61.3 °F /  16.3 °C 27.1 °F /  -2.7 °C 29.91in /  1012.8hPa ESE 2.0mph /  3.2km/h 5.0mph /  8km/h 27% 0.00in /  0mm 21.0 W/m2
07:28 61.7 °F /  16.5 °C 26.4 °F /  -3.1 °C 29.92in /  1013.1hPa SSE 2.9mph /  4.7km/h 3.0mph /  4.8km/h 26% 0.00in /  0mm 23.0 W/m2
07:33 62.2 °F /  16.8 °C 27.0 °F /  -2.8 °C 29.92in /  1013.1hPa SE 6.0mph /  9.7km/h 8.0mph /  12.9km/h 26% 0.00in /  0mm 25.0 W/m2
07:38 62.8 °F /  17.1 °C 26.4 °F /  -3.1 °C 29.92in /  1013.1hPa East 11.0mph /  17.7km/h 11.0mph /  17.7km/h 25% 0.00in /  0mm 30.0 W/m2
07:43 63.3 °F /  17.4 °C 27.0 °F /  -2.8 °C 29.92in /  1013.1hPa ENE 0.9mph /  1.4km/h 12.0mph /  19.3km/h 25% 0.00in /  0mm 67.0 W/m2
07:48 63.9 °F /  17.7 °C 27.3 °F /  -2.6 °C 29.92in /  1013.1hPa ESE 2.0mph /  3.2km/h 9.0mph /  14.5km/h 25% 0.00in /  0mm 28.0 W/m2
07:53 64.2 °F /  17.9 °C 26.6 °F /  -3 °C 29.92in /  1013.1hPa SE 2.9mph /  4.7km/h 13.0mph /  20.9km/h 24% 0.00in /  0mm 28.0 W/m2
07:59 64.6 °F /  18.1 °C 27.0 °F /  -2.8 °C 29.92in /  1013.1hPa Calm   12.0mph /  19.3km/h 24% 0.00in /  0mm 30.0 W/m2
08:04 64.8 °F /  18.2 °C 27.1 °F /  -2.7 °C 29.92in /  1013.1hPa Calm   9.0mph /  14.5km/h 24% 0.00in /  0mm 32.0 W/m2
08:09 64.9 °F /  18.3 °C 27.3 °F /  -2.6 °C 29.92in /  1013.1hPa Calm   7.0mph /  11.3km/h 24% 0.00in /  0mm 32.0 W/m2
08:14 65.1 °F /  18.4 °C 26.4 °F /  -3.1 °C 29.92in /  1013.1hPa Calm   10.0mph /  16.1km/h 23% 0.00in /  0mm 35.0 W/m2
08:19 65.5 °F /  18.6 °C 26.8 °F /  -2.9 °C 29.91in /  1012.8hPa SE 8.1mph /  13km/h 12.0mph /  19.3km/h 23% 0.00in /  0mm 51.0 W/m2
08:24 65.7 °F /  18.7 °C 26.8 °F /  -2.9 °C 29.91in /  1012.8hPa East 2.9mph /  4.7km/h 12.0mph /  19.3km/h 23% 0.00in /  0mm 480.0 W/m2
08:29 66.0 °F /  18.9 °C 27.1 °F /  -2.7 °C 29.91in /  1012.8hPa ESE 4.0mph /  6.4km/h 7.0mph /  11.3km/h 23% 0.00in /  0mm 503.0 W/m2
08:34 66.7 °F /  19.3 °C 26.6 °F /  -3 °C 29.91in /  1012.8hPa SE 4.9mph /  7.9km/h 10.0mph /  16.1km/h 22% 0.00in /  0mm 524.0 W/m2
08:40 67.6 °F /  19.8 °C 27.5 °F /  -2.5 °C 29.91in /  1012.8hPa NNE 2.0mph /  3.2km/h 10.0mph /  16.1km/h 22% 0.00in /  0mm 545.0 W/m2
08:45 68.4 °F /  20.2 °C 27.0 °F /  -2.8 °C 29.91in /  1012.8hPa East 0.9mph /  1.4km/h 11.0mph /  17.7km/h 21% 0.00in /  0mm 561.0 W/m2
08:50 69.1 °F /  20.6 °C 27.5 °F /  -2.5 °C 29.91in /  1012.8hPa East 12.1mph /  19.5km/h 12.1mph /  19.5km/h 21% 0.00in /  0mm 580.0 W/m2
08:55 69.3 °F /  20.7 °C 26.4 °F /  -3.1 °C 29.91in /  1012.8hPa ENE 20.0mph /  32.2km/h 20.0mph /  32.2km/h 20% 0.00in /  0mm 596.0 W/m2
09:00 69.4 °F /  20.8 °C 26.6 °F /  -3 °C 29.91in /  1012.8hPa East 4.0mph /  6.4km/h 13.0mph /  20.9km/h 20% 0.00in /  0mm 615.0 W/m2
09:05 69.6 °F /  20.9 °C 26.8 °F /  -2.9 °C 29.91in /  1012.8hPa NE 0.9mph /  1.4km/h 10.0mph /  16.1km/h 20% 0.00in /  0mm 629.0 W/m2
09:10 70.2 °F /  21.2 °C 27.1 °F /  -2.7 °C 29.91in /  1012.8hPa ESE 4.9mph /  7.9km/h 11.0mph /  17.7km/h 20% 0.00in /  0mm 654.0 W/m2
09:16 70.3 °F /  21.3 °C 26.1 °F /  -3.3 °C 29.91in /  1012.8hPa ENE 6.0mph /  9.7km/h 14.0mph /  22.5km/h 19% 0.00in /  0mm 671.0 W/m2
09:22 70.3 °F /  21.3 °C 26.1 °F /  -3.3 °C 29.91in /  1012.8hPa ENE 15.0mph /  24.1km/h 15.0mph /  24.1km/h 19% 0.00in /  0mm 693.0 W/m2
09:27 70.5 °F /  21.4 °C 26.2 °F /  -3.2 °C 29.91in /  1012.8hPa East 8.9mph /  14.3km/h 13.0mph /  20.9km/h 19% 0.00in /  0mm 707.0 W/m2
09:33 71.1 °F /  21.7 °C 26.8 °F /  -2.9 °C 29.91in /  1012.8hPa SSE 2.0mph /  3.2km/h 13.0mph /  20.9km/h 19% 0.00in /  0mm 728.0 W/m2
09:38 71.4 °F /  21.9 °C 27.0 °F /  -2.8 °C 29.91in /  1012.8hPa ENE 4.0mph /  6.4km/h 11.0mph /  17.7km/h 19% 0.00in /  0mm 745.0 W/m2
09:43 71.8 °F /  22.1 °C 27.3 °F /  -2.6 °C 29.91in /  1012.8hPa South 6.9mph /  11.1km/h 18.0mph /  29km/h 19% 0.00in /  0mm 759.0 W/m2
09:48 72.0 °F /  22.2 °C 27.5 °F /  -2.5 °C 29.91in /  1012.8hPa ENE 2.9mph /  4.7km/h 13.0mph /  20.9km/h 19% 0.00in /  0mm 773.0 W/m2
09:53 72.7 °F /  22.6 °C 28.0 °F /  -2.2 °C 29.90in /  1012.4hPa East 0.9mph /  1.4km/h 7.0mph /  11.3km/h 19% 0.00in /  0mm 793.0 W/m2
09:58 73.2 °F /  22.9 °C 27.1 °F /  -2.7 °C 29.90in /  1012.4hPa ENE 4.0mph /  6.4km/h 10.0mph /  16.1km/h 18% 0.00in /  0mm 788.0 W/m2
10:04 73.8 °F /  23.2 °C 27.7 °F /  -2.4 °C 29.90in /  1012.4hPa ENE 2.9mph /  4.7km/h 7.0mph /  11.3km/h 18% 0.00in /  0mm 821.0 W/m2
10:09 74.5 °F /  23.6 °C 28.2 °F /  -2.1 °C 29.90in /  1012.4hPa NNW 0.9mph /  1.4km/h 11.0mph /  17.7km/h 18% 0.00in /  0mm 831.0 W/m2
10:14 75.2 °F /  24 °C 27.3 °F /  -2.6 °C 29.90in /  1012.4hPa East 2.9mph /  4.7km/h 6.0mph /  9.7km/h 17% 0.00in /  0mm 847.0 W/m2
10:19 75.9 °F /  24.4 °C 26.4 °F /  -3.1 °C 29.90in /  1012.4hPa ENE 6.9mph /  11.1km/h 17.0mph /  27.4km/h 16% 0.00in /  0mm 858.0 W/m2
10:24 76.1 °F /  24.5 °C 26.6 °F /  -3 °C 29.89in /  1012.1hPa SE 6.0mph /  9.7km/h 12.0mph /  19.3km/h 16% 0.00in /  0mm 870.0 W/m2
10:29 76.3 °F /  24.6 °C 26.8 °F /  -2.9 °C 29.89in /  1012.1hPa South 2.0mph /  3.2km/h 16.0mph /  25.7km/h 16% 0.00in /  0mm 877.0 W/m2
10:34 76.6 °F /  24.8 °C 27.1 °F /  -2.7 °C 29.89in /  1012.1hPa ESE 2.0mph /  3.2km/h 12.0mph /  19.3km/h 16% 0.00in /  0mm 888.0 W/m2
10:39 76.8 °F /  24.9 °C 27.1 °F /  -2.7 °C 29.89in /  1012.1hPa SE 6.0mph /  9.7km/h 15.0mph /  24.1km/h 16% 0.00in /  0mm 898.0 W/m2
10:44 77.4 °F /  25.2 °C 26.1 °F /  -3.3 °C 29.89in /  1012.1hPa ESE 12.1mph /  19.5km/h 12.1mph /  19.5km/h 15% 0.00in /  0mm 909.0 W/m2
10:50 77.9 °F /  25.5 °C 26.6 °F /  -3 °C 29.89in /  1012.1hPa NE 4.9mph /  7.9km/h 15.0mph /  24.1km/h 15% 0.00in /  0mm 919.0 W/m2
10:55 78.1 °F /  25.6 °C 26.6 °F /  -3 °C 29.89in /  1012.1hPa NE 8.1mph /  13km/h 9.0mph /  14.5km/h 15% 0.00in /  0mm 930.0 W/m2
11:01 78.6 °F /  25.9 °C 27.1 °F /  -2.7 °C 29.89in /  1012.1hPa ESE 8.1mph /  13km/h 18.0mph /  29km/h 15% 0.00in /  0mm 937.0 W/m2
11:06 79.0 °F /  26.1 °C 27.3 °F /  -2.6 °C 29.89in /  1012.1hPa East 0.9mph /  1.4km/h 9.0mph /  14.5km/h 15% 0.00in /  0mm 946.0 W/m2
11:11 79.3 °F /  26.3 °C 27.7 °F /  -2.4 °C 29.88in /  1011.7hPa ESE 8.9mph /  14.3km/h 9.0mph /  14.5km/h 15% 0.00in /  0mm 951.0 W/m2
11:16 79.9 °F /  26.6 °C 26.4 °F /  -3.1 °C 29.88in /  1011.7hPa ENE 8.9mph /  14.3km/h 11.0mph /  17.7km/h 14% 0.00in /  0mm 963.0 W/m2
11:21 79.9 °F /  26.6 °C 28.0 °F /  -2.2 °C 29.89in /  1012.1hPa East 4.9mph /  7.9km/h 11.0mph /  17.7km/h 15% 0.00in /  0mm 970.0 W/m2
11:26 80.2 °F /  26.8 °C 26.8 °F /  -2.9 °C 29.88in /  1011.7hPa SE 4.0mph /  6.4km/h 13.0mph /  20.9km/h 14% 0.00in /  0mm 974.0 W/m2
11:31 80.4 °F /  26.9 °C 26.8 °F /  -2.9 °C 29.88in /  1011.7hPa East 6.0mph /  9.7km/h 17.0mph /  27.4km/h 14% 0.00in /  0mm 983.0 W/m2
11:37 80.6 °F /  27 °C 27.0 °F /  -2.8 °C 29.88in /  1011.7hPa SE 6.9mph /  11.1km/h 15.0mph /  24.1km/h 14% 0.00in /  0mm 984.0 W/m2
11:42 81.0 °F /  27.2 °C 27.3 °F /  -2.6 °C 29.87in /  1011.4hPa NNE 6.9mph /  11.1km/h 16.0mph /  25.7km/h 14% 0.00in /  0mm 990.0 W/m2
11:47 81.1 °F /  27.3 °C 27.5 °F /  -2.5 °C 29.87in /  1011.4hPa ENE 2.0mph /  3.2km/h 13.0mph /  20.9km/h 14% 0.00in /  0mm 993.0 W/m2
11:52 81.3 °F /  27.4 °C 27.5 °F /  -2.5 °C 29.87in /  1011.4hPa ENE 6.9mph /  11.1km/h 13.0mph /  20.9km/h 14% 0.00in /  0mm 998.0 W/m2
11:57 81.5 °F /  27.5 °C 25.9 °F /  -3.4 °C 29.87in /  1011.4hPa East 2.0mph /  3.2km/h 14.0mph /  22.5km/h 13% 0.00in /  0mm 998.0 W/m2
12:02 81.7 °F /  27.6 °C 27.9 °F /  -2.3 °C 29.87in /  1011.4hPa ENE 6.9mph /  11.1km/h 14.0mph /  22.5km/h 14% 0.00in /  0mm 1004.0 W/m2
12:07 82.0 °F /  27.8 °C 26.4 °F /  -3.1 °C 29.87in /  1011.4hPa NE 6.0mph /  9.7km/h 14.0mph /  22.5km/h 13% 0.00in /  0mm 1011.0 W/m2
12:12 82.6 °F /  28.1 °C 26.8 °F /  -2.9 °C 29.86in /  1011.1hPa North 2.9mph /  4.7km/h 14.0mph /  22.5km/h 13% 0.00in /  0mm 1011.0 W/m2
12:17 82.6 °F /  28.1 °C 26.8 °F /  -2.9 °C 29.86in /  1011.1hPa ENE 2.0mph /  3.2km/h 9.0mph /  14.5km/h 13% 0.00in /  0mm 1007.0 W/m2
12:23 82.9 °F /  28.3 °C 27.0 °F /  -2.8 °C 29.86in /  1011.1hPa ENE 8.1mph /  13km/h 12.0mph /  19.3km/h 13% 0.00in /  0mm 1013.0 W/m2
12:28 83.5 °F /  28.6 °C 27.5 °F /  -2.5 °C 29.86in /  1011.1hPa ENE 6.9mph /  11.1km/h 9.0mph /  14.5km/h 13% 0.00in /  0mm 1005.0 W/m2
12:33 83.8 °F /  28.8 °C 27.7 °F /  -2.4 °C 29.86in /  1011.1hPa ENE 4.9mph /  7.9km/h 14.0mph /  22.5km/h 13% 0.00in /  0mm 1004.0 W/m2
12:38 84.0 °F /  28.9 °C 25.9 °F /  -3.4 °C 29.85in /  1010.7hPa ESE 6.9mph /  11.1km/h 11.0mph /  17.7km/h 12% 0.00in /  0mm 1004.0 W/m2
12:43 83.7 °F /  28.7 °C 25.7 °F /  -3.5 °C 29.86in /  1011.1hPa East 4.0mph /  6.4km/h 11.0mph /  17.7km/h 12% 0.00in /  0mm 1005.0 W/m2
12:48 83.8 °F /  28.8 °C 27.7 °F /  -2.4 °C 29.85in /  1010.7hPa NE 4.0mph /  6.4km/h 11.0mph /  17.7km/h 13% 0.00in /  0mm 1007.0 W/m2
12:53 84.4 °F /  29.1 °C 26.2 °F /  -3.2 °C 29.85in /  1010.7hPa Calm   9.0mph /  14.5km/h 12% 0.00in /  0mm 1004.0 W/m2
12:58 84.7 °F /  29.3 °C 26.4 °F /  -3.1 °C 29.85in /  1010.7hPa ESE 2.9mph /  4.7km/h 11.0mph /  17.7km/h 12% 0.00in /  0mm 1000.0 W/m2
13:03 84.7 °F /  29.3 °C 26.4 °F /  -3.1 °C 29.85in /  1010.7hPa Calm   9.0mph /  14.5km/h 12% 0.00in /  0mm 995.0 W/m2
13:09 84.7 °F /  29.3 °C 28.4 °F /  -2 °C 29.85in /  1010.7hPa SE 0.9mph /  1.4km/h 8.0mph /  12.9km/h 13% 0.00in /  0mm 988.0 W/m2
13:15 84.7 °F /  29.3 °C 26.4 °F /  -3.1 °C 29.85in /  1010.7hPa NE 2.9mph /  4.7km/h 9.0mph /  14.5km/h 12% 0.00in /  0mm 979.0 W/m2
13:20 85.5 °F /  29.7 °C 27.1 °F /  -2.7 °C 29.85in /  1010.7hPa ENE 2.0mph /  3.2km/h 4.0mph /  6.4km/h 12% 0.00in /  0mm 977.0 W/m2
13:25 85.8 °F /  29.9 °C 27.3 °F /  -2.6 °C 29.85in /  1010.7hPa ESE 2.9mph /  4.7km/h 12.0mph /  19.3km/h 12% 0.00in /  0mm 970.0 W/m2
13:30 86.4 °F /  30.2 °C 27.7 °F /  -2.4 °C 29.84in /  1010.4hPa SE 2.0mph /  3.2km/h 5.0mph /  8km/h 12% 0.00in /  0mm 969.0 W/m2
13:35 86.5 °F /  30.3 °C 27.9 °F /  -2.3 °C 29.84in /  1010.4hPa NNW 4.0mph /  6.4km/h 8.0mph /  12.9km/h 12% 0.00in /  0mm 958.0 W/m2
13:40 86.9 °F /  30.5 °C 26.1 °F /  -3.3 °C 29.84in /  1010.4hPa Calm   11.0mph /  17.7km/h 11% 0.00in /  0mm 960.0 W/m2
13:45 87.1 °F /  30.6 °C 26.2 °F /  -3.2 °C 29.83in /  1010hPa South 0.9mph /  1.4km/h 7.0mph /  11.3km/h 11% 0.00in /  0mm 946.0 W/m2
13:50 87.3 °F /  30.7 °C 26.4 °F /  -3.1 °C 29.83in /  1010hPa South 2.0mph /  3.2km/h 8.0mph /  12.9km/h 11% 0.00in /  0mm 935.0 W/m2
13:55 87.3 °F /  30.7 °C 26.4 °F /  -3.1 °C 29.83in /  1010hPa ESE 4.0mph /  6.4km/h 8.0mph /  12.9km/h 11% 0.00in /  0mm 935.0 W/m2
14:02 87.4 °F /  30.8 °C 26.4 °F /  -3.1 °C 29.83in /  1010hPa ENE 4.0mph /  6.4km/h 11.0mph /  17.7km/h 11% 0.00in /  0mm 918.0 W/m2
14:07 87.4 °F /  30.8 °C 24.3 °F /  -4.3 °C 29.83in /  1010hPa NNE 4.0mph /  6.4km/h 10.0mph /  16.1km/h 10% 0.00in /  0mm 909.0 W/m2
14:12 87.4 °F /  30.8 °C 24.3 °F /  -4.3 °C 29.82in /  1009.7hPa Calm   2.0mph /  3.2km/h 10% 0.00in /  0mm 902.0 W/m2
14:17 87.6 °F /  30.9 °C 24.3 °F /  -4.3 °C 29.82in /  1009.7hPa NNE 2.0mph /  3.2km/h 4.0mph /  6.4km/h 10% 0.00in /  0mm 891.0 W/m2
14:22 88.2 °F /  31.2 °C 24.8 °F /  -4 °C 29.82in /  1009.7hPa NE 6.9mph /  11.1km/h 7.0mph /  11.3km/h 10% 0.00in /  0mm 882.0 W/m2
14:27 88.3 °F /  31.3 °C 22.3 °F /  -5.4 °C 29.82in /  1009.7hPa NNE 4.0mph /  6.4km/h 8.0mph /  12.9km/h 9% 0.00in /  0mm 867.0 W/m2
14:32 88.9 °F /  31.6 °C 25.3 °F /  -3.7 °C 29.82in /  1009.7hPa North 4.0mph /  6.4km/h 6.0mph /  9.7km/h 10% 0.00in /  0mm 860.0 W/m2
14:37 89.4 °F /  31.9 °C 23.2 °F /  -4.9 °C 29.82in /  1009.7hPa Calm   3.0mph /  4.8km/h 9% 0.00in /  0mm 849.0 W/m2
14:43 89.8 °F /  32.1 °C 23.4 °F /  -4.8 °C 29.81in /  1009.4hPa NNE 2.9mph /  4.7km/h 3.0mph /  4.8km/h 9% 0.00in /  0mm 830.0 W/m2
14:49 89.8 °F /  32.1 °C 23.4 °F /  -4.8 °C 29.81in /  1009.4hPa West 2.0mph /  3.2km/h 4.0mph /  6.4km/h 9% 0.00in /  0mm 824.0 W/m2
14:54 89.4 °F /  31.9 °C 20.3 °F /  -6.5 °C 29.81in /  1009.4hPa NNE 6.9mph /  11.1km/h 10.0mph /  16.1km/h 8% 0.00in /  0mm 810.0 W/m2
15:00 89.6 °F /  32 °C 23.4 °F /  -4.8 °C 29.81in /  1009.4hPa North 6.0mph /  9.7km/h 6.0mph /  9.7km/h 9% 0.00in /  0mm 789.0 W/m2
15:05 89.4 °F /  31.9 °C 23.2 °F /  -4.9 °C 29.80in /  1009hPa Calm   7.0mph /  11.3km/h 9% 0.00in /  0mm 773.0 W/m2
15:10 89.4 °F /  31.9 °C 23.2 °F /  -4.9 °C 29.80in /  1009hPa Calm   5.0mph /  8km/h 9% 0.00in /  0mm 763.0 W/m2
15:15 89.8 °F /  32.1 °C 23.4 °F /  -4.8 °C 29.80in /  1009hPa NNW 2.0mph /  3.2km/h 8.0mph /  12.9km/h 9% 0.00in /  0mm 747.0 W/m2
15:20 90.0 °F /  32.2 °C 23.5 °F /  -4.7 °C 29.80in /  1009hPa Calm   9.0mph /  14.5km/h 9% 0.00in /  0mm 735.0 W/m2
15:25 90.3 °F /  32.4 °C 23.9 °F /  -4.5 °C 29.79in /  1008.7hPa West 6.0mph /  9.7km/h 8.0mph /  12.9km/h 9% 0.00in /  0mm 721.0 W/m2
15:31 90.9 °F /  32.7 °C 24.3 °F /  -4.3 °C 29.80in /  1009hPa WNW 2.9mph /  4.7km/h 6.0mph /  9.7km/h 9% 0.00in /  0mm 708.0 W/m2
15:36 91.2 °F /  32.9 °C 21.7 °F /  -5.7 °C 29.79in /  1008.7hPa Calm   2.0mph /  3.2km/h 8% 0.00in /  0mm 686.0 W/m2
15:41 91.9 °F /  33.3 °C 22.3 °F /  -5.4 °C 29.79in /  1008.7hPa Calm   3.0mph /  4.8km/h 8% 0.00in /  0mm 671.0 W/m2
15:47 91.6 °F /  33.1 °C 21.9 °F /  -5.6 °C 29.79in /  1008.7hPa North 2.9mph /  4.7km/h 9.0mph /  14.5km/h 8% 0.00in /  0mm 652.0 W/m2
15:52 91.0 °F /  32.8 °C 21.6 °F /  -5.8 °C 29.78in /  1008.4hPa WSW 6.9mph /  11.1km/h 8.0mph /  12.9km/h 8% 0.00in /  0mm 633.0 W/m2
15:57 90.3 °F /  32.4 °C 23.9 °F /  -4.5 °C 29.78in /  1008.4hPa WNW 2.9mph /  4.7km/h 6.0mph /  9.7km/h 9% 0.00in /  0mm 628.0 W/m2
16:02 90.5 °F /  32.5 °C 23.9 °F /  -4.5 °C 29.78in /  1008.4hPa WNW 6.9mph /  11.1km/h 7.0mph /  11.3km/h 9% 0.00in /  0mm 608.0 W/m2
16:07 91.0 °F /  32.8 °C 24.4 °F /  -4.2 °C 29.78in /  1008.4hPa WSW 4.9mph /  7.9km/h 5.0mph /  8km/h 9% 0.00in /  0mm 584.0 W/m2
16:19 92.1 °F /  33.4 °C 22.5 °F /  -5.3 °C 29.78in /  1008.4hPa WSW 2.9mph /  4.7km/h 5.0mph /  8km/h 8% 0.00in /  0mm 540.0 W/m2
16:29 91.6 °F /  33.1 °C 21.9 °F /  -5.6 °C 29.78in /  1008.4hPa Calm   4.0mph /  6.4km/h 8% 0.00in /  0mm 517.0 W/m2
16:34 91.2 °F /  32.9 °C 21.7 °F /  -5.7 °C 29.77in /  1008hPa NW 6.9mph /  11.1km/h 17.0mph /  27.4km/h 8% 0.00in /  0mm 204.0 W/m2
16:39 91.2 °F /  32.9 °C 21.7 °F /  -5.7 °C 29.78in /  1008.4hPa NNW 8.9mph /  14.3km/h 13.0mph /  20.9km/h 8% 0.00in /  0mm 469.0 W/m2
16:44 91.0 °F /  32.8 °C 21.6 °F /  -5.8 °C 29.78in /  1008.4hPa NW 2.9mph /  4.7km/h 14.0mph /  22.5km/h 8% 0.00in /  0mm 446.0 W/m2
16:49 91.0 °F /  32.8 °C 21.6 °F /  -5.8 °C 29.78in /  1008.4hPa North 2.9mph /  4.7km/h 7.0mph /  11.3km/h 8% 0.00in /  0mm 438.0 W/m2
16:54 91.2 °F /  32.9 °C 21.7 °F /  -5.7 °C 29.78in /  1008.4hPa SW 2.0mph /  3.2km/h 5.0mph /  8km/h 8% 0.00in /  0mm 425.0 W/m2
16:59 91.6 °F /  33.1 °C 21.9 °F /  -5.6 °C 29.78in /  1008.4hPa West 4.9mph /  7.9km/h 5.0mph /  8km/h 8% 0.00in /  0mm 424.0 W/m2
17:05 91.2 °F /  32.9 °C 21.7 °F /  -5.7 °C 29.78in /  1008.4hPa WSW 6.9mph /  11.1km/h 8.0mph /  12.9km/h 8% 0.00in /  0mm 408.0 W/m2
17:10 91.0 °F /  32.8 °C 21.6 °F /  -5.8 °C 29.78in /  1008.4hPa SW 0.9mph /  1.4km/h 8.0mph /  12.9km/h 8% 0.00in /  0mm 301.0 W/m2
17:15 90.7 °F /  32.6 °C 21.4 °F /  -5.9 °C 29.78in /  1008.4hPa West 0.9mph /  1.4km/h 3.0mph /  4.8km/h 8% 0.00in /  0mm 109.0 W/m2
17:20 90.3 °F /  32.4 °C 23.9 °F /  -4.5 °C 29.78in /  1008.4hPa West 2.9mph /  4.7km/h 6.0mph /  9.7km/h 9% 0.00in /  0mm 334.0 W/m2
17:25 90.3 °F /  32.4 °C 23.9 °F /  -4.5 °C 29.78in /  1008.4hPa WNW 2.0mph /  3.2km/h 6.0mph /  9.7km/h 9% 0.00in /  0mm 257.0 W/m2
17:30 90.5 °F /  32.5 °C 23.9 °F /  -4.5 °C 29.78in /  1008.4hPa WNW 2.0mph /  3.2km/h 7.0mph /  11.3km/h 9% 0.00in /  0mm 325.0 W/m2
17:35 90.3 °F /  32.4 °C 23.9 °F /  -4.5 °C 29.78in /  1008.4hPa WNW 2.0mph /  3.2km/h 5.0mph /  8km/h 9% 0.00in /  0mm 97.0 W/m2
17:40 90.0 °F /  32.2 °C 23.5 °F /  -4.7 °C 29.78in /  1008.4hPa NNW 0.9mph /  1.4km/h 5.0mph /  8km/h 9% 0.00in /  0mm 91.0 W/m2
17:45 89.2 °F /  31.8 °C 23.0 °F /  -5 °C 29.78in /  1008.4hPa Calm   7.0mph /  11.3km/h 9% 0.00in /  0mm 90.0 W/m2
17:51 88.5 °F /  31.4 °C 22.5 °F /  -5.3 °C 29.78in /  1008.4hPa NW 0.9mph /  1.4km/h 2.0mph /  3.2km/h 9% 0.00in /  0mm 86.0 W/m2
18:01 87.6 °F /  30.9 °C 21.7 °F /  -5.7 °C 29.79in /  1008.7hPa Calm   6.0mph /  9.7km/h 9% 0.00in /  0mm 76.0 W/m2
18:06 87.6 °F /  30.9 °C 21.7 °F /  -5.7 °C 29.79in /  1008.7hPa Calm   4.0mph /  6.4km/h 9% 0.00in /  0mm 141.0 W/m2
18:11 87.4 °F /  30.8 °C 24.3 °F /  -4.3 °C 29.79in /  1008.7hPa Calm   3.0mph /  4.8km/h 10% 0.00in /  0mm 49.0 W/m2
18:16 87.3 °F /  30.7 °C 24.1 °F /  -4.4 °C 29.79in /  1008.7hPa Calm   3.0mph /  4.8km/h 10% 0.00in /  0mm 46.0 W/m2
18:21 87.1 °F /  30.6 °C 23.9 °F /  -4.5 °C 29.79in /  1008.7hPa Calm   2.0mph /  3.2km/h 10% 0.00in /  0mm 39.0 W/m2
18:26 86.5 °F /  30.3 °C 23.5 °F /  -4.7 °C 29.79in /  1008.7hPa Calm   2.0mph /  3.2km/h 10% 0.00in /  0mm 26.0 W/m2
18:31 86.4 °F /  30.2 °C 23.4 °F /  -4.8 °C 29.79in /  1008.7hPa Calm   1.0mph /  1.6km/h 10% 0.00in /  0mm 19.0 W/m2
18:37 85.8 °F /  29.9 °C 23.0 °F /  -5 °C 29.79in /  1008.7hPa NNW 2.0mph /  3.2km/h 2.0mph /  3.2km/h 10% 0.00in /  0mm 18.0 W/m2
18:42 85.5 °F /  29.7 °C 22.6 °F /  -5.2 °C 29.79in /  1008.7hPa NNE 0.9mph /  1.4km/h 3.0mph /  4.8km/h 10% 0.00in /  0mm 16.0 W/m2
18:47 85.1 °F /  29.5 °C 22.5 °F /  -5.3 °C 29.79in /  1008.7hPa NNE 0.9mph /  1.4km/h 1.0mph /  1.6km/h 10% 0.00in /  0mm 11.0 W/m2
18:52 84.7 °F /  29.3 °C 22.1 °F /  -5.5 °C 29.79in /  1008.7hPa Calm   5.0mph /  8km/h 10% 0.00in /  0mm 0.0 W/m2
18:57 84.6 °F /  29.2 °C 24.3 °F /  -4.3 °C 29.79in /  1008.7hPa NW 0.9mph /  1.4km/h 2.0mph /  3.2km/h 11% 0.00in /  0mm 0.0 W/m2
19:02 84.2 °F /  29 °C 24.1 °F /  -4.4 °C 29.79in /  1008.7hPa Calm   2.0mph /  3.2km/h 11% 0.00in /  0mm 0.0 W/m2
19:07 84.0 °F /  28.9 °C 23.9 °F /  -4.5 °C 29.79in /  1008.7hPa Calm   1.0mph /  1.6km/h 11% 0.00in /  0mm 0.0 W/m2
19:12 83.8 °F /  28.8 °C 23.7 °F /  -4.6 °C 29.79in /  1008.7hPa Calm     11% 0.00in /  0mm 0.0 W/m2
19:18 83.8 °F /  28.8 °C 25.9 °F /  -3.4 °C 29.80in /  1009hPa Calm     12% 0.00in /  0mm 0.0 W/m2
19:23 83.7 °F /  28.7 °C 25.7 °F /  -3.5 °C 29.80in /  1009hPa Calm     12% 0.00in /  0mm 0.0 W/m2
19:28 83.5 °F /  28.6 °C 25.5 °F /  -3.6 °C 29.80in /  1009hPa Calm   1.0mph /  1.6km/h 12% 0.00in /  0mm 0.0 W/m2
19:33 83.1 °F /  28.4 °C 25.3 °F /  -3.7 °C 29.80in /  1009hPa Calm   1.0mph /  1.6km/h 12% 0.00in /  0mm 0.0 W/m2
19:38 82.9 °F /  28.3 °C 25.2 °F /  -3.8 °C 29.80in /  1009hPa Calm     12% 0.00in /  0mm 0.0 W/m2
19:43 82.8 °F /  28.2 °C 25.0 °F /  -3.9 °C 29.81in /  1009.4hPa Calm     12% 0.00in /  0mm 0.0 W/m2
19:49 82.4 °F /  28 °C 24.6 °F /  -4.1 °C 29.81in /  1009.4hPa Calm   1.0mph /  1.6km/h 12% 0.00in /  0mm 0.0 W/m2
19:54 82.2 °F /  27.9 °C 24.6 °F /  -4.1 °C 29.81in /  1009.4hPa Calm   1.0mph /  1.6km/h 12% 0.00in /  0mm 0.0 W/m2
19:59 82.2 °F /  27.9 °C 28.2 °F /  -2.1 °C 29.82in /  1009.7hPa North 4.0mph /  6.4km/h 8.0mph /  12.9km/h 14% 0.00in /  0mm 0.0 W/m2
20:04 82.0 °F /  27.8 °C 28.2 °F /  -2.1 °C 29.82in /  1009.7hPa WNW 2.0mph /  3.2km/h 4.0mph /  6.4km/h 14% 0.00in /  0mm 0.0 W/m2
20:09 81.9 °F /  27.7 °C 28.0 °F /  -2.2 °C 29.83in /  1010hPa Calm   5.0mph /  8km/h 14% 0.00in /  0mm 0.0 W/m2
20:15 81.7 °F /  27.6 °C 29.5 °F /  -1.4 °C 29.83in /  1010hPa NNW 2.0mph /  3.2km/h 5.0mph /  8km/h 15% 0.00in /  0mm 0.0 W/m2
20:16 81.7 °F /  27.6 °C 29.5 °F /  -1.4 °C 29.83in /  1010hPa Calm   5.0mph /  8km/h 15% 0.00in /  0mm 0.0 W/m2
20:21 81.5 °F /  27.5 °C 29.5 °F /  -1.4 °C 29.83in /  1010hPa North 2.9mph /  4.7km/h 7.0mph /  11.3km/h 15% 0.00in /  0mm 0.0 W/m2
20:26 81.1 °F /  27.3 °C 29.1 °F /  -1.6 °C 29.83in /  1010hPa NNW 0.9mph /  1.4km/h 5.0mph /  8km/h 15% 0.00in /  0mm 0.0 W/m2
20:31 81.0 °F /  27.2 °C 28.9 °F /  -1.7 °C 29.83in /  1010hPa NNW 4.0mph /  6.4km/h 6.0mph /  9.7km/h 15% 0.00in /  0mm 0.0 W/m2
20:36 80.8 °F /  27.1 °C 28.8 °F /  -1.8 °C 29.83in /  1010hPa North 4.0mph /  6.4km/h 6.0mph /  9.7km/h 15% 0.00in /  0mm 0.0 W/m2
20:41 80.6 °F /  27 °C 28.8 °F /  -1.8 °C 29.83in /  1010hPa NNE 6.0mph /  9.7km/h 9.0mph /  14.5km/h 15% 0.00in /  0mm 0.0 W/m2
20:46 80.4 °F /  26.9 °C 28.6 °F /  -1.9 °C 29.83in /  1010hPa NNW 2.0mph /  3.2km/h 5.0mph /  8km/h 15% 0.00in /  0mm 0.0 W/m2
20:51 80.4 °F /  26.9 °C 28.6 °F /  -1.9 °C 29.83in /  1010hPa North 6.9mph /  11.1km/h 7.0mph /  11.3km/h 15% 0.00in /  0mm 0.0 W/m2
20:57 80.4 °F /  26.9 °C 28.6 °F /  -1.9 °C 29.84in /  1010.4hPa NNW 2.9mph /  4.7km/h 8.0mph /  12.9km/h 15% 0.00in /  0mm 0.0 W/m2
21:02 80.2 °F /  26.8 °C 28.4 °F /  -2 °C 29.84in /  1010.4hPa Calm   1.0mph /  1.6km/h 15% 0.00in /  0mm 0.0 W/m2
21:07 80.1 °F /  26.7 °C 29.8 °F /  -1.2 °C 29.85in /  1010.7hPa Calm   3.0mph /  4.8km/h 16% 0.00in /  0mm 0.0 W/m2
21:12 79.9 °F /  26.6 °C 29.7 °F /  -1.3 °C 29.85in /  1010.7hPa WSW 2.0mph /  3.2km/h 3.0mph /  4.8km/h 16% 0.00in /  0mm 0.0 W/m2
21:18 79.5 °F /  26.4 °C 26.1 °F /  -3.3 °C 29.85in /  1010.7hPa WSW 4.0mph /  6.4km/h 11.0mph /  17.7km/h 14% 0.00in /  0mm 0.0 W/m2
21:23 79.3 °F /  26.3 °C 24.3 °F /  -4.3 °C 29.86in /  1011.1hPa WNW 0.9mph /  1.4km/h 4.0mph /  6.4km/h 13% 0.00in /  0mm 0.0 W/m2
21:28 79.3 °F /  26.3 °C 26.1 °F /  -3.3 °C 29.86in /  1011.1hPa Calm   7.0mph /  11.3km/h 14% 0.00in /  0mm 0.0 W/m2
21:33 79.2 °F /  26.2 °C 25.9 °F /  -3.4 °C 29.86in /  1011.1hPa SW 4.0mph /  6.4km/h 6.0mph /  9.7km/h 14% 0.00in /  0mm 0.0 W/m2
21:38 78.8 °F /  26 °C 27.3 °F /  -2.6 °C 29.86in /  1011.1hPa WSW 4.0mph /  6.4km/h 10.0mph /  16.1km/h 15% 0.00in /  0mm 0.0 W/m2
21:43 78.4 °F /  25.8 °C 27.0 °F /  -2.8 °C 29.87in /  1011.4hPa Calm   2.0mph /  3.2km/h 15% 0.00in /  0mm 0.0 W/m2
21:48 78.3 °F /  25.7 °C 26.8 °F /  -2.9 °C 29.88in /  1011.7hPa Calm   1.0mph /  1.6km/h 15% 0.00in /  0mm 0.0 W/m2
21:53 77.9 °F /  25.5 °C 26.6 °F /  -3 °C 29.88in /  1011.7hPa WNW 0.9mph /  1.4km/h 4.0mph /  6.4km/h 15% 0.00in /  0mm 0.0 W/m2
21:58 77.5 °F /  25.3 °C 27.9 °F /  -2.3 °C 29.88in /  1011.7hPa WSW 0.9mph /  1.4km/h 5.0mph /  8km/h 16% 0.00in /  0mm 0.0 W/m2
22:04 77.4 °F /  25.2 °C 27.7 °F /  -2.4 °C 29.87in /  1011.4hPa Calm     16% 0.00in /  0mm 0.0 W/m2
22:09 77.2 °F /  25.1 °C 28.9 °F /  -1.7 °C 29.88in /  1011.7hPa Calm   1.0mph /  1.6km/h 17% 0.00in /  0mm 0.0 W/m2
22:14 76.8 °F /  24.9 °C 28.8 °F /  -1.8 °C 29.88in /  1011.7hPa Calm     17% 0.00in /  0mm 0.0 W/m2
22:19 76.6 °F /  24.8 °C 28.6 °F /  -1.9 °C 29.88in /  1011.7hPa Calm     17% 0.00in /  0mm 0.0 W/m2
22:24 76.1 °F /  24.5 °C 28.0 °F /  -2.2 °C 29.88in /  1011.7hPa NE 2.0mph /  3.2km/h 2.0mph /  3.2km/h 17% 0.00in /  0mm 0.0 W/m2
22:29 75.6 °F /  24.2 °C 29.1 °F /  -1.6 °C 29.88in /  1011.7hPa NNW 0.9mph /  1.4km/h 4.0mph /  6.4km/h 18% 0.00in /  0mm 0.0 W/m2
22:34 75.2 °F /  24 °C 28.8 °F /  -1.8 °C 29.88in /  1011.7hPa Calm   1.0mph /  1.6km/h 18% 0.00in /  0mm 0.0 W/m2
22:39 74.8 °F /  23.8 °C 28.4 °F /  -2 °C 29.88in /  1011.7hPa Calm     18% 0.00in /  0mm 0.0 W/m2
22:45 74.5 °F /  23.6 °C 29.5 °F /  -1.4 °C 29.88in /  1011.7hPa Calm   2.0mph /  3.2km/h 19% 0.00in /  0mm 0.0 W/m2
22:50 74.1 °F /  23.4 °C 29.3 °F /  -1.5 °C 29.88in /  1011.7hPa Calm   1.0mph /  1.6km/h 19% 0.00in /  0mm 0.0 W/m2
22:55 73.9 °F /  23.3 °C 29.1 °F /  -1.6 °C 29.88in /  1011.7hPa Calm     19% 0.00in /  0mm 0.0 W/m2
23:00 73.6 °F /  23.1 °C 28.8 °F /  -1.8 °C 29.88in /  1011.7hPa Calm     19% 0.00in /  0mm 0.0 W/m2
23:05 73.0 °F /  22.8 °C 28.4 °F /  -2 °C 29.88in /  1011.7hPa Calm     19% 0.00in /  0mm 0.0 W/m2
23:10 72.7 °F /  22.6 °C 29.3 °F /  -1.5 °C 29.88in /  1011.7hPa Calm     20% 0.00in /  0mm 0.0 W/m2
23:15 72.1 °F /  22.3 °C 28.8 °F /  -1.8 °C 29.87in /  1011.4hPa Calm     20% 0.00in /  0mm 0.0 W/m2
23:20 71.8 °F /  22.1 °C 29.7 °F /  -1.3 °C 29.88in /  1011.7hPa Calm     21% 0.00in /  0mm 0.0 W/m2
23:26 71.2 °F /  21.8 °C 29.3 °F /  -1.5 °C 29.87in /  1011.4hPa Calm     21% 0.00in /  0mm 0.0 W/m2
23:31 70.9 °F /  21.6 °C 28.9 °F /  -1.7 °C 29.87in /  1011.4hPa Calm     21% 0.00in /  0mm 0.0 W/m2
23:36 70.5 °F /  21.4 °C 29.8 °F /  -1.2 °C 29.87in /  1011.4hPa Calm   1.0mph /  1.6km/h 22% 0.00in /  0mm 0.0 W/m2
23:41 70.2 °F /  21.2 °C 29.5 °F /  -1.4 °C 29.87in /  1011.4hPa Calm     22% 0.00in /  0mm 0.0 W/m2
23:46 70.0 °F /  21.1 °C 29.3 °F /  -1.5 °C 29.87in /  1011.4hPa Calm     22% 0.00in /  0mm 0.0 W/m2
23:51 69.6 °F /  20.9 °C 30.2 °F /  -1 °C 29.86in /  1011.1hPa SSE 2.0mph /  3.2km/h 2.0mph /  3.2km/h 23% 0.00in /  0mm 0.0 W/m2
23:56 69.3 °F /  20.7 °C 29.8 °F /  -1.2 °C 29.86in /  1011.1hPa SE 0.9mph /  1.4km/h 3.0mph /  4.8km/h 23% 0.00in /  0mm 0.0 W/m2
Olympia, Windhoek, Namibia
Compliments of Weather Underground - 3.25 mb